createdAt,value
2024-05-09T00:05:17.046Z,2.82
2024-05-09T00:10:58.257Z,2.20
2024-05-09T00:16:38.855Z,2.18
2024-05-09T00:22:18.567Z,1.78
2024-05-09T00:27:59.905Z,1.66
2024-05-09T00:33:40.610Z,1.92
2024-05-09T00:39:20.628Z,3.25
2024-05-09T00:45:00.640Z,2.20
2024-05-09T00:50:42.594Z,2.80
2024-05-09T00:56:23.306Z,4.59
2024-05-09T01:02:03.851Z,6.84
2024-05-09T01:07:44.191Z,5.80
2024-05-09T01:13:24.259Z,5.69
2024-05-09T01:19:08.823Z,5.34
2024-05-09T01:24:49.229Z,4.13
2024-05-09T01:36:13.090Z,2.61
2024-05-09T01:41:53.349Z,2.86
2024-05-09T01:47:33.389Z,2.56
2024-05-09T01:53:15.162Z,2.59
2024-05-09T01:58:55.184Z,3.41
2024-05-09T02:04:35.749Z,2.64
2024-05-09T02:10:20.495Z,2.34
2024-05-09T02:15:58.243Z,2.31
2024-05-09T02:21:38.414Z,2.14
2024-05-09T02:27:18.766Z,1.59
2024-05-09T02:32:59.434Z,1.55
2024-05-09T02:38:39.874Z,1.64
2024-05-09T02:44:20.816Z,1.59
2024-05-09T02:50:04.613Z,1.51
2024-05-09T02:55:45.995Z,1.75
2024-05-09T03:05:23.070Z,1.55
2024-05-09T03:11:03.497Z,1.47
2024-05-09T03:16:43.624Z,1.88
2024-05-09T03:22:23.929Z,1.76
2024-05-09T03:28:04.083Z,1.68
2024-05-09T03:33:44.017Z,1.53
2024-05-09T03:39:24.199Z,1.59
2024-05-09T03:45:07.558Z,1.26
2024-05-09T03:50:47.924Z,1.12
2024-05-09T03:56:28.939Z,1.46
2024-05-09T04:02:08.826Z,1.11
2024-05-09T04:07:49.139Z,1.22
2024-05-09T04:13:29.437Z,1.72
2024-05-09T04:19:09.508Z,1.24
2024-05-09T04:24:50.185Z,1.76
2024-05-09T04:30:37.640Z,1.57
2024-05-09T04:36:13.255Z,1.24
2024-05-09T04:41:53.557Z,1.16
2024-05-09T04:47:33.386Z,1.51
2024-05-09T04:53:17.391Z,0.91
2024-05-09T04:58:57.422Z,1.62
2024-05-09T05:05:40.734Z,1.21
2024-05-09T05:11:21.213Z,1.17
2024-05-09T05:17:01.206Z,0.96
2024-05-09T05:22:42.935Z,0.85
2024-05-09T05:28:23.606Z,0.92
2024-05-09T05:34:04.266Z,0.87
2024-05-09T05:39:44.520Z,1.09
2024-05-09T05:45:26.579Z,0.82
2024-05-09T05:51:07.221Z,1.43
2024-05-09T05:56:47.448Z,0.94
2024-05-09T06:02:27.861Z,0.70
2024-05-09T06:08:08.555Z,0.71
2024-05-09T06:13:48.840Z,0.91
2024-05-09T06:19:29.310Z,1.05
2024-05-09T06:25:09.726Z,1.01
2024-05-09T06:30:49.824Z,1.02
2024-05-09T06:36:29.984Z,0.95
2024-05-09T06:42:10.299Z,0.78
2024-05-09T06:47:50.520Z,0.75
2024-05-09T06:53:30.457Z,2.26
2024-05-09T06:59:10.675Z,1.33
2024-05-09T07:04:50.765Z,1.09
2024-05-09T07:10:34.882Z,1.11
2024-05-09T07:16:12.205Z,1.21
2024-05-09T07:21:52.954Z,1.24
2024-05-09T07:27:34.475Z,1.12
2024-05-09T07:33:19.359Z,1.98
2024-05-09T07:39:00.154Z,1.04
2024-05-09T07:44:40.498Z,0.99
2024-05-09T08:01:42.988Z,1.03
2024-05-09T08:07:23.428Z,2.14
2024-05-09T08:13:05.813Z,1.14
2024-05-09T08:18:46.445Z,0.93
2024-05-09T08:24:26.565Z,1.07
2024-05-09T08:30:10.212Z,1.09
2024-05-09T08:35:49.504Z,1.42
2024-05-09T08:41:31.972Z,1.20
2024-05-09T08:47:12.435Z,0.99
2024-05-09T08:52:52.374Z,1.01
2024-05-09T08:58:34.575Z,1.03
2024-05-09T09:05:40.046Z,1.18
2024-05-09T09:11:20.154Z,1.04
2024-05-09T09:17:00.736Z,1.01
2024-05-09T09:22:41.107Z,1.60
2024-05-09T09:28:22.540Z,1.09
2024-05-09T09:34:06.861Z,0.90
2024-05-09T09:39:49.155Z,0.87
2024-05-09T09:45:31.360Z,0.90
2024-05-09T09:56:51.794Z,0.77
2024-05-09T10:02:32.182Z,0.94
2024-05-09T10:08:13.311Z,1.27
2024-05-09T10:13:54.283Z,0.86
2024-05-09T10:19:34.671Z,0.94
2024-05-09T10:25:15.740Z,0.89
2024-05-09T10:31:12.795Z,1.87
2024-05-09T10:36:55.388Z,1.53
2024-05-09T10:42:38.599Z,1.50
2024-05-09T10:48:20.892Z,1.18
2024-05-09T10:54:01.116Z,1.42
2024-05-09T10:59:45.035Z,1.28
2024-05-09T11:05:26.337Z,1.37
2024-05-09T11:16:59.795Z,1.28
2024-05-09T11:22:40.116Z,1.44
2024-05-09T11:28:21.914Z,1.69
2024-05-09T11:39:42.133Z,1.40
2024-05-09T11:45:22.204Z,1.33
2024-05-09T11:51:02.347Z,1.67
2024-05-09T11:56:43.288Z,1.13
2024-05-09T12:05:38.908Z,1.03
2024-05-09T12:11:19.351Z,1.28
2024-05-09T12:17:00.597Z,1.48
2024-05-09T12:22:40.765Z,1.14
2024-05-09T12:28:21.513Z,1.01
2024-05-09T12:34:01.779Z,1.03
2024-05-09T12:39:41.721Z,0.99
2024-05-09T12:45:22.072Z,1.11
2024-05-09T12:51:02.083Z,1.57
2024-05-09T12:56:42.197Z,1.09
2024-05-09T13:02:23.176Z,1.21
2024-05-09T13:08:04.123Z,1.41
2024-05-09T13:13:44.785Z,0.93
2024-05-09T13:19:24.950Z,1.16
2024-05-09T13:25:05.414Z,1.01
2024-05-09T13:30:45.194Z,0.83
2024-05-09T13:36:25.515Z,0.92
2024-05-09T13:42:06.494Z,0.94
2024-05-09T13:47:46.310Z,0.74
2024-05-09T13:53:26.417Z,0.90
2024-05-09T13:59:07.373Z,0.94
2024-05-09T14:10:31.165Z,0.78
2024-05-09T14:16:09.947Z,1.14
2024-05-09T14:21:50.381Z,0.82
2024-05-09T14:27:31.632Z,0.83
2024-05-09T14:38:52.388Z,0.89
2024-05-09T14:44:32.780Z,1.11
2024-05-09T14:50:19.603Z,0.87
2024-05-09T14:55:55.005Z,1.59
2024-05-09T15:05:26.827Z,0.98
2024-05-09T15:11:07.006Z,1.34
2024-05-09T15:16:48.091Z,1.08
2024-05-09T15:22:28.640Z,1.19
2024-05-09T15:28:08.966Z,0.93
2024-05-09T15:33:49.731Z,1.84
2024-05-09T15:39:30.072Z,0.95
2024-05-09T15:45:10.274Z,2.03
2024-05-09T15:50:50.714Z,6.28
2024-05-09T15:56:31.886Z,2.38
2024-05-09T16:02:12.516Z,2.69
2024-05-09T16:07:53.255Z,2.08
2024-05-09T16:13:33.274Z,1.29
2024-05-09T16:19:13.645Z,1.39
2024-05-09T16:24:54.457Z,1.45
2024-05-09T16:30:36.045Z,1.67
2024-05-09T16:36:17.066Z,0.99
2024-05-09T16:41:56.748Z,1.38
2024-05-09T16:47:36.959Z,1.16
2024-05-09T16:53:18.463Z,1.00
2024-05-09T16:58:58.882Z,1.48
2024-05-09T17:04:39.514Z,1.30
2024-05-09T17:10:26.940Z,1.38
2024-05-09T17:16:01.422Z,1.16
2024-05-09T17:21:41.356Z,1.27
2024-05-09T17:27:21.908Z,1.45
2024-05-09T17:33:02.701Z,2.32
2024-05-09T17:38:42.534Z,5.02
2024-05-09T17:44:22.401Z,5.26
2024-05-09T17:50:09.561Z,5.64
2024-05-09T17:55:48.103Z,4.48
2024-05-09T18:05:23.852Z,3.04
2024-05-09T18:11:04.240Z,4.13
2024-05-09T18:16:44.801Z,3.93
2024-05-09T18:22:25.180Z,4.35
2024-05-09T18:28:06.887Z,4.71
2024-05-09T18:33:47.002Z,5.08
2024-05-09T18:39:27.453Z,5.10
2024-05-09T18:45:07.903Z,4.50
2024-05-09T18:50:48.971Z,4.47
2024-05-09T18:56:29.058Z,4.71
2024-05-09T19:02:09.282Z,4.19
2024-05-09T19:07:49.448Z,3.29
2024-05-09T19:13:30.140Z,3.34
2024-05-09T19:19:10.898Z,3.42
2024-05-09T19:24:51.403Z,2.61
2024-05-09T19:30:38.636Z,2.79
2024-05-09T19:36:13.503Z,2.21
2024-05-09T19:41:53.169Z,2.02
2024-05-09T19:47:33.791Z,2.15
2024-05-09T19:53:14.209Z,2.72
2024-05-09T19:58:55.278Z,2.74
2024-05-09T20:04:35.621Z,2.61
2024-05-09T20:10:23.342Z,2.99
2024-05-09T20:15:58.184Z,2.97
2024-05-09T20:21:42.749Z,3.02
2024-05-09T20:27:23.206Z,2.92
2024-05-09T20:33:06.327Z,2.73
2024-05-09T20:38:46.693Z,2.38
2024-05-09T20:44:27.543Z,2.91
2024-05-09T20:50:19.682Z,2.79
2024-05-09T20:55:51.510Z,2.69
2024-05-09T21:05:56.859Z,2.66
2024-05-09T21:11:36.956Z,2.58
2024-05-09T21:17:16.888Z,3.08
2024-05-09T21:22:59.705Z,2.52
2024-05-09T21:28:39.845Z,2.51
2024-05-09T21:34:20.155Z,2.54
2024-05-09T21:40:00.686Z,4.09
2024-05-09T21:45:41.095Z,2.82
2024-05-09T21:51:21.425Z,2.54
2024-05-09T21:57:01.948Z,2.57
2024-05-09T22:02:41.982Z,3.67
2024-05-09T22:08:21.617Z,2.44
2024-05-09T22:14:01.900Z,2.86
2024-05-09T22:19:48.678Z,2.48
2024-05-09T22:25:31.080Z,2.45
2024-05-09T22:31:11.658Z,2.58
2024-05-09T22:36:51.895Z,2.11
2024-05-09T22:42:32.290Z,2.78
2024-05-09T22:48:12.392Z,2.32
2024-05-09T22:53:52.644Z,2.72
2024-05-09T22:59:33.476Z,3.03
2024-05-09T23:05:13.834Z,2.97
2024-05-09T23:10:53.986Z,2.78
2024-05-09T23:16:34.042Z,2.71
2024-05-09T23:22:14.065Z,2.59
2024-05-09T23:27:53.867Z,2.69
2024-05-09T23:33:34.869Z,10.51
2024-05-09T23:39:15.248Z,5.51
2024-05-09T23:44:57.491Z,3.42
2024-05-09T23:50:39.221Z,2.82
2024-05-09T23:56:21.168Z,2.56
